Time;durP1;ratioP1;P1;durP2;ratioP2;P2;SDS_P1;SDS_P2;PMS_P1;PMS_P2;Temp;Humidity;BMP_temperature;BMP_pressure;BME280_temperature;BME280_humidity;BME280_pressure;Samples;Min_cycle;Max_cycle;Signal;HPM_P1;HPM_P2
2023/11/25 00:01:44;0.00;0.00;0.62;0.00;0.00;0.62;10.57;8.50;;;20.20;26.70;;;;;;2264465;61;20452;-55
2023/11/25 00:04:28;0.00;0.00;0.62;0.00;0.00;0.62;9.20;7.47;;;20.20;26.70;;;;;;2264588;61;20368;-60
2023/11/25 00:07:13;0.00;0.00;0.62;0.00;0.00;0.62;10.33;7.97;;;20.20;26.70;;;;;;2264253;61;20499;-59
2023/11/25 00:09:58;0.00;0.00;0.62;0.00;0.00;0.62;8.43;6.43;;;20.20;26.70;;;;;;2264490;61;20388;-58
2023/11/25 00:12:43;0.00;0.00;0.62;0.00;0.00;0.62;12.93;8.27;;;20.20;26.70;;;;;;2264423;61;20356;-60
2023/11/25 00:15:30;0.00;0.00;0.62;0.00;0.00;0.62;8.50;7.23;;;20.20;26.70;;;;;;2264413;61;20884;-54
2023/11/25 00:18:14;0.00;0.00;0.62;0.00;0.00;0.62;10.70;7.80;;;20.20;26.70;;;;;;2264507;61;20380;-55
2023/11/25 00:20:59;0.00;0.00;0.62;0.00;0.00;0.62;9.20;6.73;;;20.20;26.70;;;;;;2264840;61;20414;-58
2023/11/25 00:23:44;0.00;0.00;0.62;0.00;0.00;0.62;9.53;7.27;;;20.20;26.70;;;;;;2264426;61;20876;-57
2023/11/25 00:26:29;0.00;0.00;0.62;0.00;0.00;0.62;10.30;6.73;;;20.30;26.80;;;;;;2264544;61;20360;-58
2023/11/25 00:29:18;0.00;0.00;0.62;0.00;0.00;0.62;8.87;7.33;;;20.20;26.70;;;;;;2264301;61;20440;-55
2023/11/25 00:32:05;0.00;0.00;0.62;0.00;0.00;0.62;7.73;6.30;;;20.20;26.70;;;;;;2263828;61;20360;-60
2023/11/25 00:34:50;0.00;0.00;0.62;0.00;0.00;0.62;10.73;7.07;;;20.20;26.70;;;;;;2264822;61;20523;-59
2023/11/25 00:37:36;0.00;0.00;0.62;0.00;0.00;0.62;9.10;6.87;;;20.20;26.70;;;;;;2261034;61;20364;-58
2023/11/25 00:40:20;0.00;0.00;0.62;0.00;0.00;0.62;7.80;6.03;;;20.20;26.70;;;;;;2264531;61;20400;-55
2023/11/25 00:43:06;0.00;0.00;0.62;0.00;0.00;0.62;10.67;7.17;;;20.20;26.70;;;;;;2263462;61;20391;-56
2023/11/25 00:45:50;0.00;0.00;0.62;0.00;0.00;0.62;8.37;5.70;;;20.20;26.70;;;;;;2263943;61;20364;-53
2023/11/25 00:48:36;0.00;0.00;0.62;0.00;0.00;0.62;7.50;5.97;;;20.20;26.70;;;;;;2264588;61;20387;-57
2023/11/25 00:51:21;0.00;0.00;0.62;0.00;0.00;0.62;8.33;5.90;;;20.20;26.80;;;;;;2263679;61;20372;-55
2023/11/25 00:54:06;0.00;0.00;0.62;0.00;0.00;0.62;8.47;6.83;;;20.20;26.70;;;;;;2264261;61;20371;-58
2023/11/25 00:56:50;0.00;0.00;0.62;0.00;0.00;0.62;6.83;5.53;;;20.20;26.70;;;;;;2264034;61;20368;-56
2023/11/25 00:59:34;0.00;0.00;0.62;0.00;0.00;0.62;8.10;6.27;;;20.20;26.70;;;;;;2263610;61;20802;-58
2023/11/25 01:02:19;0.00;0.00;0.62;0.00;0.00;0.62;7.53;6.30;;;20.20;27.30;;;;;;2264227;61;20372;-60
2023/11/25 01:05:07;0.00;0.00;0.62;0.00;0.00;0.62;7.53;6.10;;;20.20;26.70;;;;;;2264443;61;20364;-56
2023/11/25 01:07:52;0.00;0.00;0.62;0.00;0.00;0.62;7.93;5.53;;;20.20;26.70;;;;;;2264150;61;20419;-61
2023/11/25 01:10:36;0.00;0.00;0.62;0.00;0.00;0.62;9.07;7.13;;;20.20;26.70;;;;;;2264350;61;20411;-58
2023/11/25 01:13:21;0.00;0.00;0.62;0.00;0.00;0.62;8.07;6.00;;;20.20;26.70;;;;;;2263849;61;20367;-59
2023/11/25 01:16:16;0.00;0.00;0.62;0.00;0.00;0.62;9.50;6.80;;;20.10;26.70;;;;;;2264421;61;20915;-62
2023/11/25 01:19:00;0.00;0.00;0.62;0.00;0.00;0.62;8.10;6.10;;;20.20;26.70;;;;;;2263891;61;20439;-57
2023/11/25 01:21:46;0.00;0.00;0.62;0.00;0.00;0.62;8.47;6.67;;;20.20;26.70;;;;;;2263890;61;20360;-58
2023/11/25 01:24:31;0.00;0.00;0.62;0.00;0.00;0.62;8.53;6.03;;;20.10;26.70;;;;;;2264402;61;20510;-60
2023/11/25 01:27:15;0.00;0.00;0.62;0.00;0.00;0.62;7.53;5.80;;;20.10;26.70;;;;;;2264442;61;20410;-58
2023/11/25 01:30:02;0.00;0.00;0.62;0.00;0.00;0.62;8.23;6.10;;;20.10;26.70;;;;;;2259649;61;20442;-60
2023/11/25 01:32:47;0.00;0.00;0.62;0.00;0.00;0.62;9.10;6.23;;;20.10;26.70;;;;;;2263612;61;20856;-55
2023/11/25 01:35:32;0.00;0.00;0.62;0.00;0.00;0.62;8.87;6.40;;;20.10;26.70;;;;;;2263794;61;20376;-60
2023/11/25 01:38:18;0.00;0.00;0.62;0.00;0.00;0.62;7.97;6.23;;;20.20;26.70;;;;;;2264226;61;20359;-60
2023/11/25 01:41:04;0.00;0.00;0.62;0.00;0.00;0.62;8.00;6.00;;;20.10;26.70;;;;;;2264369;61;20372;-60
2023/11/25 01:43:49;0.00;0.00;0.62;0.00;0.00;0.62;7.03;5.17;;;20.20;26.70;;;;;;2263582;61;20589;-56
2023/11/25 01:46:37;0.00;0.00;0.62;0.00;0.00;0.62;7.40;6.00;;;20.10;26.70;;;;;;2261105;61;20376;-56
2023/11/25 01:49:22;0.00;0.00;0.62;0.00;0.00;0.62;7.07;5.83;;;20.20;26.70;;;;;;2264259;61;20404;-59
2023/11/25 01:52:09;0.00;0.00;0.62;0.00;0.00;0.62;7.50;5.30;;;20.10;26.70;;;;;;2263071;61;20363;-61
2023/11/25 01:55:00;0.00;0.00;0.62;0.00;0.00;0.62;6.50;5.03;;;20.10;26.70;;;;;;2263570;61;20367;-60
2023/11/25 01:57:45;0.00;0.00;0.62;0.00;0.00;0.62;8.47;6.17;;;20.10;26.70;;;;;;2260610;61;20469;-61
2023/11/25 02:00:30;0.00;0.00;0.62;0.00;0.00;0.62;7.37;5.33;;;20.10;26.70;;;;;;2261099;61;20434;-56
2023/11/25 02:03:16;0.00;0.00;0.62;0.00;0.00;0.62;7.37;5.43;;;20.10;26.70;;;;;;2264077;61;20364;-61
2023/11/25 02:06:01;0.00;0.00;0.62;0.00;0.00;0.62;7.17;5.77;;;20.10;26.70;;;;;;2262871;61;20411;-60
2023/11/25 02:08:46;0.00;0.00;0.62;0.00;0.00;0.62;6.40;4.47;;;20.10;26.70;;;;;;2258212;61;21015;-61
2023/11/25 02:11:32;0.00;0.00;0.62;0.00;0.00;0.62;7.30;5.30;;;20.10;26.70;;;;;;2259392;61;20393;-61
2023/11/25 02:14:18;0.00;0.00;0.62;0.00;0.00;0.62;6.23;4.83;;;20.10;26.70;;;;;;2257119;61;20379;-58
2023/11/25 02:17:04;0.00;0.00;0.62;0.00;0.00;0.62;6.43;4.40;;;20.10;26.70;;;;;;2265483;58;20375;-61
2023/11/25 02:19:49;0.00;0.00;0.62;0.00;0.00;0.62;7.83;4.90;;;20.10;26.70;;;;;;2263483;61;20841;-56
2023/11/25 02:22:34;0.00;0.00;0.62;0.00;0.00;0.62;7.50;5.20;;;20.10;26.70;;;;;;2263415;61;20403;-62
2023/11/25 02:25:21;0.00;0.00;0.62;0.00;0.00;0.62;7.03;4.70;;;20.10;26.70;;;;;;2264386;61;20368;-61
2023/11/25 02:28:06;0.00;0.00;0.62;0.00;0.00;0.62;5.33;4.03;;;20.10;26.70;;;;;;2263787;61;20368;-58
2023/11/25 02:30:51;0.00;0.00;0.62;0.00;0.00;0.62;5.83;4.37;;;20.10;26.70;;;;;;2264139;61;20427;-60
2023/11/25 02:33:36;0.00;0.00;0.62;0.00;0.00;0.62;5.70;4.20;;;20.10;26.70;;;;;;2264824;61;20371;-57
2023/11/25 02:36:20;0.00;0.00;0.62;0.00;0.00;0.62;4.53;3.50;;;20.10;26.70;;;;;;2264253;61;20367;-60
2023/11/25 02:39:06;0.00;0.00;0.62;0.00;0.00;0.62;5.83;4.40;;;20.00;26.60;;;;;;2264910;61;20466;-57
2023/11/25 02:41:52;0.00;0.00;0.62;0.00;0.00;0.62;5.50;4.43;;;20.10;26.70;;;;;;2264373;61;20464;-60
2023/11/25 02:44:37;0.00;0.00;0.62;0.00;0.00;0.62;5.37;4.03;;;20.00;26.60;;;;;;2264572;61;20363;-56
2023/11/25 02:47:22;0.00;0.00;0.62;0.00;0.00;0.62;5.47;3.60;;;20.00;26.60;;;;;;2265028;61;20376;-55
2023/11/25 02:50:07;0.00;0.00;0.62;0.00;0.00;0.62;4.90;3.93;;;20.10;26.70;;;;;;2264151;61;20391;-57
2023/11/25 02:52:52;0.00;0.00;0.62;0.00;0.00;0.62;4.03;3.63;;;20.10;26.70;;;;;;2264747;61;20463;-57
2023/11/25 02:55:37;0.00;0.00;0.62;0.00;0.00;0.62;5.93;4.70;;;20.00;26.60;;;;;;2264949;61;21015;-58
2023/11/25 02:58:23;0.00;0.00;0.62;0.00;0.00;0.62;5.40;3.80;;;20.00;26.60;;;;;;2264619;61;20383;-57
2023/11/25 03:01:11;0.00;0.00;0.62;0.00;0.00;0.62;6.70;3.93;;;20.00;26.60;;;;;;2264519;61;20380;-59
2023/11/25 03:04:00;0.00;0.00;0.62;0.00;0.00;0.62;5.70;3.63;;;20.00;26.60;;;;;;2264782;61;20419;-61
2023/11/25 03:06:45;0.00;0.00;0.62;0.00;0.00;0.62;3.77;2.90;;;20.00;26.60;;;;;;2264760;61;20419;-59
2023/11/25 03:09:31;0.00;0.00;0.62;0.00;0.00;0.62;4.53;3.60;;;20.00;26.60;;;;;;2264782;61;20492;-55
2023/11/25 03:12:15;0.00;0.00;0.62;0.00;0.00;0.62;4.60;3.20;;;20.00;26.60;;;;;;2263644;61;20375;-60
2023/11/25 03:15:02;0.00;0.00;0.62;0.00;0.00;0.62;4.10;3.00;;;20.00;26.60;;;;;;2264918;61;20368;-61
2023/11/25 03:17:47;0.00;0.00;0.62;0.00;0.00;0.62;4.37;3.53;;;20.00;26.60;;;;;;2264746;61;20904;-57
2023/11/25 03:20:33;0.00;0.00;0.62;0.00;0.00;0.62;4.73;3.27;;;20.00;26.60;;;;;;2264077;61;20368;-56
2023/11/25 03:23:18;0.00;0.00;0.62;0.00;0.00;0.62;5.43;3.10;;;20.00;26.60;;;;;;2264382;61;20896;-52
2023/11/25 03:26:05;0.00;0.00;0.62;0.00;0.00;0.62;4.33;2.87;;;20.00;26.60;;;;;;2264670;61;20367;-59
2023/11/25 03:28:49;0.00;0.00;0.62;0.00;0.00;0.62;3.97;3.10;;;20.00;26.60;;;;;;2264852;61;20998;-58
2023/11/25 03:31:42;0.00;0.00;0.62;0.00;0.00;0.62;4.63;3.23;;;20.00;26.60;;;;;;2264506;61;20361;-58
2023/11/25 03:34:27;0.00;0.00;0.62;0.00;0.00;0.62;4.60;2.97;;;20.00;26.60;;;;;;2264271;61;20440;-59
2023/11/25 03:37:11;0.00;0.00;0.62;0.00;0.00;0.62;5.07;3.40;;;20.00;26.60;;;;;;2264678;61;20876;-60
2023/11/25 03:39:56;0.00;0.00;0.62;0.00;0.00;0.62;4.93;3.40;;;20.00;26.60;;;;;;2264232;61;20400;-55
2023/11/25 03:42:40;0.00;0.00;0.62;0.00;0.00;0.62;3.90;3.00;;;20.00;26.60;;;;;;2263969;61;20364;-58
2023/11/25 03:45:26;0.00;0.00;0.62;0.00;0.00;0.62;5.43;3.30;;;19.90;26.50;;;;;;2264765;61;20884;-59
2023/11/25 03:48:12;0.00;0.00;0.62;0.00;0.00;0.62;5.30;3.50;;;19.90;26.50;;;;;;2264763;61;20360;-56
2023/11/25 03:50:56;0.00;0.00;0.62;0.00;0.00;0.62;4.90;3.70;;;20.00;26.60;;;;;;2264265;61;20447;-53
2023/11/25 03:53:40;0.00;0.00;0.62;0.00;0.00;0.62;4.90;3.60;;;19.90;26.50;;;;;;2264070;61;20943;-57
2023/11/25 03:56:25;0.00;0.00;0.62;0.00;0.00;0.62;4.37;3.37;;;19.90;26.50;;;;;;2263917;61;20360;-57
2023/11/25 03:59:10;0.00;0.00;0.62;0.00;0.00;0.62;5.47;3.70;;;19.90;26.50;;;;;;2264366;61;20420;-56
2023/11/25 04:01:55;0.00;0.00;0.62;0.00;0.00;0.62;5.03;3.63;;;20.00;26.60;;;;;;2264312;61;20371;-55
2023/11/25 04:04:42;0.00;0.00;0.62;0.00;0.00;0.62;6.77;3.63;;;19.90;26.60;;;;;;2261349;61;20396;-61
2023/11/25 04:07:26;0.00;0.00;0.62;0.00;0.00;0.62;5.60;3.60;;;19.90;26.50;;;;;;2264416;61;20395;-60
2023/11/25 04:10:12;0.00;0.00;0.62;0.00;0.00;0.62;5.67;3.70;;;19.90;26.50;;;;;;2264711;61;20388;-57
2023/11/25 04:12:58;0.00;0.00;0.62;0.00;0.00;0.62;4.97;3.27;;;19.90;26.50;;;;;;2263978;61;20356;-56
2023/11/25 04:15:43;0.00;0.00;0.62;0.00;0.00;0.62;5.20;3.80;;;19.90;27.10;;;;;;2263911;61;20411;-57
2023/11/25 04:18:27;0.00;0.00;0.62;0.00;0.00;0.62;4.80;3.20;;;19.90;26.50;;;;;;2264283;61;20852;-56
2023/11/25 04:21:13;0.00;0.00;0.62;0.00;0.00;0.62;6.27;4.07;;;19.90;26.50;;;;;;2264678;61;20391;-59
2023/11/25 04:23:58;0.00;0.00;0.62;0.00;0.00;0.62;8.40;4.90;;;19.90;26.50;;;;;;2264474;61;20886;-55
2023/11/25 04:26:42;0.00;0.00;0.62;0.00;0.00;0.62;6.00;3.83;;;19.90;26.50;;;;;;2266559;61;20368;-59
2023/11/25 04:29:27;0.00;0.00;0.62;0.00;0.00;0.62;6.63;4.20;;;19.90;26.60;;;;;;2266912;61;20458;-60
2023/11/25 04:32:11;0.00;0.00;0.62;0.00;0.00;0.62;5.50;3.80;;;19.90;26.50;;;;;;2266603;61;20359;-55
2023/11/25 04:34:56;0.00;0.00;0.62;0.00;0.00;0.62;5.93;3.80;;;19.90;26.50;;;;;;2265794;61;20939;-53
2023/11/25 04:37:47;0.00;0.00;0.62;0.00;0.00;0.62;5.73;3.73;;;19.90;26.50;;;;;;2266664;61;20379;-57
2023/11/25 04:40:32;0.00;0.00;0.62;0.00;0.00;0.62;5.10;3.77;;;19.90;26.50;;;;;;2266377;61;20356;-56
2023/11/25 04:43:16;0.00;0.00;0.62;0.00;0.00;0.62;6.23;4.13;;;19.90;26.50;;;;;;2266359;61;20356;-54
2023/11/25 04:46:04;0.00;0.00;0.62;0.00;0.00;0.62;4.07;3.20;;;19.90;26.50;;;;;;2266732;61;20495;-55
2023/11/25 04:48:50;0.00;0.00;0.62;0.00;0.00;0.62;4.40;3.50;;;19.90;26.50;;;;;;2266177;61;20384;-55
2023/11/25 04:51:34;0.00;0.00;0.62;0.00;0.00;0.62;5.10;3.70;;;19.90;26.50;;;;;;2266107;61;20384;-58
2023/11/25 04:54:20;0.00;0.00;0.62;0.00;0.00;0.62;4.73;2.93;;;19.90;26.50;;;;;;2266507;61;20491;-54
2023/11/25 04:57:06;0.00;0.00;0.62;0.00;0.00;0.62;4.60;3.33;;;19.80;26.50;;;;;;2266472;61;20388;-57
2023/11/25 04:59:50;0.00;0.00;0.62;0.00;0.00;0.62;6.27;3.63;;;19.80;26.50;;;;;;2266466;61;20414;-59
2023/11/25 05:02:36;0.00;0.00;0.62;0.00;0.00;0.62;5.60;3.57;;;19.90;26.50;;;;;;2265936;61;20372;-56
2023/11/25 05:05:23;0.00;0.00;0.62;0.00;0.00;0.62;5.00;3.70;;;19.90;26.60;;;;;;2266629;61;20376;-59
2023/11/25 05:08:08;0.00;0.00;0.62;0.00;0.00;0.62;5.20;3.70;;;19.80;26.50;;;;;;2266533;61;20379;-53
2023/11/25 05:10:54;0.00;0.00;0.62;0.00;0.00;0.62;4.73;3.53;;;19.80;26.50;;;;;;2266743;61;20380;-55
2023/11/25 05:13:39;0.00;0.00;0.62;0.00;0.00;0.62;6.97;3.80;;;19.80;26.50;;;;;;2266521;61;20364;-56
2023/11/25 05:16:23;0.00;0.00;0.62;0.00;0.00;0.62;4.77;3.53;;;19.80;26.50;;;;;;2266442;61;20931;-57
2023/11/25 05:19:08;0.00;0.00;0.62;0.00;0.00;0.62;5.67;3.63;;;19.80;26.50;;;;;;2266189;61;20388;-57
2023/11/25 05:21:54;0.00;0.00;0.62;0.00;0.00;0.62;5.00;3.63;;;19.80;26.50;;;;;;2266164;61;20469;-52
2023/11/25 05:24:38;0.00;0.00;0.62;0.00;0.00;0.62;4.60;3.07;;;19.80;26.50;;;;;;2266290;61;20372;-58
2023/11/25 05:27:24;0.00;0.00;0.62;0.00;0.00;0.62;4.40;3.10;;;19.80;26.50;;;;;;2266680;61;20364;-55
2023/11/25 05:30:13;0.00;0.00;0.62;0.00;0.00;0.62;4.03;3.07;;;19.80;26.50;;;;;;2316202;40;20448;-55
2023/11/25 05:32:57;0.00;0.00;0.62;0.00;0.00;0.62;6.53;3.30;;;19.80;26.50;;;;;;2257834;61;20370;-53
2023/11/25 05:35:42;0.00;0.00;0.62;0.00;0.00;0.62;4.13;2.60;;;19.80;27.00;;;;;;2258577;61;20405;-53
2023/11/25 05:38:28;0.00;0.00;0.62;0.00;0.00;0.62;6.27;3.20;;;19.80;26.50;;;;;;2259143;61;20381;-52
2023/11/25 05:41:14;0.00;0.00;0.62;0.00;0.00;0.62;4.40;3.40;;;19.80;26.50;;;;;;2262074;61;20360;-53
2023/11/25 05:44:02;0.00;0.00;0.62;0.00;0.00;0.62;4.57;2.43;;;19.80;26.50;;;;;;2261996;61;20360;-55
2023/11/25 05:46:46;0.00;0.00;0.62;0.00;0.00;0.62;4.00;2.60;;;19.80;26.50;;;;;;2262009;61;20361;-54
2023/11/25 05:49:31;0.00;0.00;0.62;0.00;0.00;0.62;3.50;2.43;;;19.80;26.50;;;;;;2262300;61;20381;-56
2023/11/25 05:52:16;0.00;0.00;0.62;0.00;0.00;0.62;5.70;3.00;;;19.80;26.50;;;;;;2261868;61;20897;-56
2023/11/25 05:55:00;0.00;0.00;0.62;0.00;0.00;0.62;5.43;3.30;;;19.80;26.50;;;;;;2262075;61;20377;-57
2023/11/25 05:57:45;0.00;0.00;0.62;0.00;0.00;0.62;4.17;3.10;;;19.80;26.50;;;;;;2262575;61;20372;-53
2023/11/25 06:00:32;0.00;0.00;0.62;0.00;0.00;0.62;5.80;2.67;;;19.80;26.50;;;;;;2362815;41;20397;-56
2023/11/25 06:03:16;0.00;0.00;0.62;0.00;0.00;0.62;4.20;2.27;;;19.70;26.90;;;;;;2270518;61;20425;-55
2023/11/25 06:06:01;0.00;0.00;0.62;0.00;0.00;0.62;4.77;2.90;;;19.70;26.40;;;;;;2271725;61;20413;-54
2023/11/25 06:08:45;0.00;0.00;0.62;0.00;0.00;0.62;5.47;2.90;;;19.80;26.50;;;;;;2275107;61;20788;-54
2023/11/25 06:11:32;0.00;0.00;0.62;0.00;0.00;0.62;3.30;2.20;;;19.80;26.50;;;;;;2272152;61;20418;-52
2023/11/25 06:14:19;0.00;0.00;0.62;0.00;0.00;0.62;4.73;2.93;;;19.80;26.50;;;;;;2275191;61;20416;-50
2023/11/25 06:17:07;0.00;0.00;0.62;0.00;0.00;0.62;3.17;2.30;;;19.80;26.50;;;;;;2271472;61;20362;-51
2023/11/25 06:19:53;0.00;0.00;0.62;0.00;0.00;0.62;3.53;2.40;;;19.80;26.50;;;;;;2274858;61;20378;-54
2023/11/25 06:22:38;0.00;0.00;0.62;0.00;0.00;0.62;3.93;3.10;;;19.80;26.50;;;;;;2274859;61;20429;-52
2023/11/25 06:25:23;0.00;0.00;0.62;0.00;0.00;0.62;3.90;2.20;;;19.70;26.40;;;;;;2274890;61;20414;-57
2023/11/25 06:28:07;0.00;0.00;0.62;0.00;0.00;0.62;4.10;2.30;;;19.80;26.50;;;;;;2275254;61;20379;-57
2023/11/25 06:30:53;0.00;0.00;0.62;0.00;0.00;0.62;3.70;2.50;;;19.70;26.40;;;;;;2275184;61;20959;-55
2023/11/25 06:33:41;0.00;0.00;0.62;0.00;0.00;0.62;4.23;2.50;;;19.80;26.50;;;;;;2274863;61;20892;-57
2023/11/25 06:36:25;0.00;0.00;0.62;0.00;0.00;0.62;3.30;2.20;;;19.70;26.40;;;;;;2274995;61;20508;-55
2023/11/25 06:39:13;0.00;0.00;0.62;0.00;0.00;0.62;2.93;2.10;;;19.80;26.50;;;;;;2274969;61;20386;-55
2023/11/25 06:41:59;0.00;0.00;0.62;0.00;0.00;0.62;3.07;1.97;;;19.70;26.40;;;;;;2274415;61;20469;-61
2023/11/25 06:44:47;0.00;0.00;0.62;0.00;0.00;0.62;3.83;2.03;;;19.70;26.40;;;;;;2275249;61;20370;-51
2023/11/25 06:47:32;0.00;0.00;0.62;0.00;0.00;0.62;2.80;1.87;;;19.70;26.40;;;;;;2274336;61;20446;-56
2023/11/25 06:50:20;0.00;0.00;0.62;0.00;0.00;0.62;3.47;2.33;;;19.70;26.40;;;;;;2274771;61;20377;-53
2023/11/25 06:53:04;0.00;0.00;0.62;0.00;0.00;0.62;3.47;2.20;;;19.70;26.40;;;;;;2274402;61;20370;-51
2023/11/25 06:55:49;0.00;0.00;0.62;0.00;0.00;0.62;3.03;2.00;;;19.70;26.40;;;;;;2274539;61;20404;-55
2023/11/25 06:58:34;0.00;0.00;0.62;0.00;0.00;0.62;3.17;2.27;;;19.70;26.40;;;;;;2274888;61;20405;-53
2023/11/25 07:01:19;0.00;0.00;0.62;0.00;0.00;0.62;3.37;2.07;;;19.70;26.40;;;;;;2274648;61;20483;-56
2023/11/25 07:04:04;0.00;0.00;0.62;0.00;0.00;0.62;3.93;2.37;;;19.70;26.40;;;;;;2274805;60;20361;-55
2023/11/25 07:06:50;0.00;0.00;0.62;0.00;0.00;0.62;2.60;1.90;;;19.70;26.40;;;;;;2274855;60;20380;-58
2023/11/25 07:09:35;0.00;0.00;0.62;0.00;0.00;0.62;3.37;2.43;;;19.70;26.40;;;;;;2274145;60;20393;-56
2023/11/25 07:12:19;0.00;0.00;0.62;0.00;0.00;0.62;3.23;1.90;;;19.70;26.40;;;;;;2274721;61;20504;-55
2023/11/25 07:15:06;0.00;0.00;0.62;0.00;0.00;0.62;3.03;1.83;;;19.80;26.50;;;;;;2274704;61;20362;-57
2023/11/25 07:17:51;0.00;0.00;0.62;0.00;0.00;0.62;3.07;2.10;;;19.70;26.40;;;;;;2274371;61;20369;-54
2023/11/25 07:20:35;0.00;0.00;0.62;0.00;0.00;0.62;3.80;2.20;;;19.70;26.40;;;;;;2274665;61;20396;-54
2023/11/25 07:23:22;0.00;0.00;0.62;0.00;0.00;0.62;3.17;1.87;;;19.70;26.40;;;;;;2271014;61;20366;-56
2023/11/25 07:26:07;0.00;0.00;0.62;0.00;0.00;0.62;3.00;1.40;;;19.70;26.40;;;;;;2274803;61;20377;-54
2023/11/25 07:28:52;0.00;0.00;0.62;0.00;0.00;0.62;3.70;2.30;;;19.70;26.40;;;;;;2526954;53;20467;-58
2023/11/25 07:31:37;0.00;0.00;0.62;0.00;0.00;0.62;3.23;1.90;;;19.70;26.40;;;;;;2269768;61;20483;-54
2023/11/25 07:34:21;0.00;0.00;0.62;0.00;0.00;0.62;2.27;1.37;;;19.70;26.40;;;;;;2270418;61;20387;-57
2023/11/25 07:37:06;0.00;0.00;0.62;0.00;0.00;0.62;2.87;1.80;;;19.70;26.40;;;;;;2270236;61;20371;-57
2023/11/25 07:39:53;0.00;0.00;0.62;0.00;0.00;0.62;3.07;1.67;;;19.70;26.40;;;;;;2270214;61;20453;-56
2023/11/25 07:42:38;0.00;0.00;0.62;0.00;0.00;0.62;4.03;1.67;;;19.70;26.60;;;;;;2270293;61;20367;-55
2023/11/25 07:45:22;0.00;0.00;0.62;0.00;0.00;0.62;2.93;1.50;;;19.70;26.40;;;;;;2270191;61;20848;-58
2023/11/25 07:48:08;0.00;0.00;0.62;0.00;0.00;0.62;2.60;1.50;;;19.70;26.40;;;;;;2270396;61;20451;-55
2023/11/25 07:50:53;0.00;0.00;0.62;0.00;0.00;0.62;3.10;1.53;;;19.70;26.40;;;;;;2270690;61;20425;-59
2023/11/25 07:53:37;0.00;0.00;0.62;0.00;0.00;0.62;3.00;1.70;;;19.70;26.40;;;;;;2271206;61;20916;-54
2023/11/25 07:56:23;0.00;0.00;0.62;0.00;0.00;0.62;3.93;1.60;;;19.70;26.40;;;;;;2274664;61;20404;-55
2023/11/25 07:59:09;0.00;0.00;0.62;0.00;0.00;0.62;2.57;1.57;;;19.70;26.40;;;;;;2274572;61;20432;-56
2023/11/25 08:01:54;0.00;0.00;0.62;0.00;0.00;0.62;2.40;1.57;;;19.70;26.40;;;;;;2274337;61;20754;-56
2023/11/25 08:04:38;0.00;0.00;0.62;0.00;0.00;0.62;2.50;1.50;;;19.70;26.40;;;;;;2274708;61;20389;-55
2023/11/25 08:07:23;0.00;0.00;0.62;0.00;0.00;0.62;2.23;1.50;;;19.70;26.40;;;;;;2274738;61;20818;-59
2023/11/25 08:10:09;0.00;0.00;0.62;0.00;0.00;0.62;2.90;1.60;;;19.70;26.40;;;;;;2274602;61;20401;-57
2023/11/25 08:12:55;0.00;0.00;0.62;0.00;0.00;0.62;3.30;1.77;;;19.70;26.40;;;;;;2274185;60;20394;-57
2023/11/25 08:15:39;0.00;0.00;0.62;0.00;0.00;0.62;2.80;1.67;;;19.70;26.40;;;;;;2274415;61;20358;-53
2023/11/25 08:18:24;0.00;0.00;0.62;0.00;0.00;0.62;2.73;1.67;;;19.70;26.40;;;;;;2274500;61;20388;-55
2023/11/25 08:21:09;0.00;0.00;0.62;0.00;0.00;0.62;3.63;1.83;;;19.70;26.40;;;;;;2274883;61;20404;-56
2023/11/25 08:23:53;0.00;0.00;0.62;0.00;0.00;0.62;2.57;1.50;;;19.70;26.40;;;;;;2274009;61;20362;-59
2023/11/25 08:26:38;0.00;0.00;0.62;0.00;0.00;0.62;2.30;1.60;;;19.70;26.40;;;;;;2275093;61;20903;-55
2023/11/25 08:29:24;0.00;0.00;0.62;0.00;0.00;0.62;2.40;1.30;;;19.70;26.40;;;;;;2274611;60;20783;-60
2023/11/25 08:32:09;0.00;0.00;0.62;0.00;0.00;0.62;2.40;1.60;;;19.70;26.40;;;;;;2274746;61;20890;-51
2023/11/25 08:34:53;0.00;0.00;0.62;0.00;0.00;0.62;2.63;1.90;;;19.70;26.40;;;;;;2274937;61;20412;-59
2023/11/25 08:37:38;0.00;0.00;0.62;0.00;0.00;0.62;2.57;1.60;;;19.70;26.40;;;;;;2274052;61;20362;-57
2023/11/25 08:40:23;0.00;0.00;0.62;0.00;0.00;0.62;2.80;1.90;;;19.70;26.40;;;;;;2274956;61;20378;-56
2023/11/25 08:43:13;0.00;0.00;0.62;0.00;0.00;0.62;3.23;1.70;;;19.70;26.40;;;;;;2274267;61;20893;-54
2023/11/25 08:46:01;0.00;0.00;0.62;0.00;0.00;0.62;3.90;2.20;;;19.70;26.40;;;;;;2274607;61;20859;-58
2023/11/25 08:48:46;0.00;0.00;0.62;0.00;0.00;0.62;2.50;1.63;;;19.70;26.40;;;;;;2274656;61;20390;-56
2023/11/25 08:51:30;0.00;0.00;0.62;0.00;0.00;0.62;2.70;1.60;;;19.70;26.40;;;;;;2275063;61;20979;-53
2023/11/25 08:54:17;0.00;0.00;0.62;0.00;0.00;0.62;2.30;1.40;;;19.70;26.40;;;;;;2274616;61;20404;-58
2023/11/25 08:57:02;0.00;0.00;0.62;0.00;0.00;0.62;4.10;2.17;;;19.70;26.40;;;;;;2274716;61;20904;-56
2023/11/25 08:59:48;0.00;0.00;0.62;0.00;0.00;0.62;2.37;1.53;;;19.70;26.40;;;;;;2274289;61;20474;-56
2023/11/25 09:02:35;0.00;0.00;0.62;0.00;0.00;0.62;3.70;1.77;;;19.70;26.40;;;;;;2274087;61;20385;-56
2023/11/25 09:05:25;0.00;0.00;0.62;0.00;0.00;0.62;2.70;1.53;;;19.70;26.40;;;;;;2274848;61;20516;-57
2023/11/25 09:08:10;0.00;0.00;0.62;0.00;0.00;0.62;2.50;1.50;;;19.70;26.40;;;;;;2274246;61;20378;-60
2023/11/25 09:10:56;0.00;0.00;0.62;0.00;0.00;0.62;2.57;1.67;;;19.70;26.40;;;;;;2274367;61;20524;-55
2023/11/25 09:13:41;0.00;0.00;0.62;0.00;0.00;0.62;2.50;1.57;;;19.70;26.40;;;;;;2274145;60;20470;-60
2023/11/25 09:16:27;0.00;0.00;0.62;0.00;0.00;0.62;2.13;1.43;;;19.60;26.30;;;;;;2274185;61;20404;-59
2023/11/25 09:19:14;0.00;0.00;0.62;0.00;0.00;0.62;2.37;1.67;;;19.70;26.40;;;;;;2270966;61;20786;-57
2023/11/25 09:21:58;0.00;0.00;0.62;0.00;0.00;0.62;2.57;1.77;;;19.70;26.40;;;;;;2274100;61;20366;-56
2023/11/25 09:24:44;0.00;0.00;0.62;0.00;0.00;0.62;3.20;1.73;;;19.60;26.30;;;;;;2271457;61;20358;-59
2023/11/25 09:27:28;0.00;0.00;0.62;0.00;0.00;0.62;2.63;1.50;;;19.70;26.40;;;;;;2274460;61;20894;-57
2023/11/25 09:30:14;0.00;0.00;0.62;0.00;0.00;0.62;2.30;1.50;;;19.60;26.40;;;;;;2274335;61;20382;-58
2023/11/25 09:33:00;0.00;0.00;0.62;0.00;0.00;0.62;2.80;1.90;;;19.60;26.30;;;;;;2274162;61;20439;-59
2023/11/25 09:35:46;0.00;0.00;0.62;0.00;0.00;0.62;3.03;1.47;;;19.60;26.30;;;;;;2274719;61;20490;-59
2023/11/25 09:38:32;0.00;0.00;0.62;0.00;0.00;0.62;2.07;1.57;;;19.60;26.30;;;;;;2274220;61;20386;-56
2023/11/25 09:41:17;0.00;0.00;0.62;0.00;0.00;0.62;2.40;1.50;;;19.60;26.30;;;;;;2274514;61;20396;-59
2023/11/25 09:44:05;0.00;0.00;0.62;0.00;0.00;0.62;2.50;1.50;;;19.70;26.40;;;;;;2273879;61;20924;-60
2023/11/25 09:46:50;0.00;0.00;0.62;0.00;0.00;0.62;2.87;2.10;;;19.70;26.40;;;;;;2274674;61;20461;-57
2023/11/25 09:49:35;0.00;0.00;0.62;0.00;0.00;0.62;2.53;1.50;;;19.70;26.40;;;;;;2274441;61;20463;-60
2023/11/25 09:52:23;0.00;0.00;0.62;0.00;0.00;0.62;2.20;1.60;;;19.60;26.30;;;;;;2274144;61;20362;-56
2023/11/25 09:55:09;0.00;0.00;0.62;0.00;0.00;0.62;3.67;2.20;;;19.70;26.40;;;;;;2274260;61;20363;-60
2023/11/25 09:57:59;0.00;0.00;0.62;0.00;0.00;0.62;2.67;1.80;;;19.70;26.40;;;;;;2274475;61;20365;-58
2023/11/25 10:00:43;0.00;0.00;0.62;0.00;0.00;0.62;2.03;1.40;;;19.70;26.40;;;;;;2274437;61;20358;-59
2023/11/25 10:03:32;0.00;0.00;0.62;0.00;0.00;0.62;2.10;1.50;;;19.60;26.30;;;;;;2274390;61;20798;-59
2023/11/25 10:06:18;0.00;0.00;0.62;0.00;0.00;0.62;2.27;1.70;;;19.70;26.40;;;;;;2274152;61;20362;-58
2023/11/25 10:09:08;0.00;0.00;0.62;0.00;0.00;0.62;2.57;1.60;;;19.60;26.30;;;;;;2274597;61;20382;-59
2023/11/25 10:11:54;0.00;0.00;0.62;0.00;0.00;0.62;3.53;1.50;;;19.60;26.30;;;;;;2274108;61;20382;-57
2023/11/25 10:14:40;0.00;0.00;0.62;0.00;0.00;0.62;2.57;2.00;;;19.60;26.30;;;;;;2274321;60;20374;-56
2023/11/25 10:17:25;0.00;0.00;0.62;0.00;0.00;0.62;2.43;1.60;;;19.60;26.30;;;;;;2274281;61;20358;-57
2023/11/25 10:20:18;0.00;0.00;0.62;0.00;0.00;0.62;2.60;2.07;;;19.60;26.30;;;;;;2274494;61;20463;-54
2023/11/25 10:23:03;0.00;0.00;0.62;0.00;0.00;0.62;4.00;2.17;;;19.70;26.40;;;;;;2274032;61;20396;-54
2023/11/25 10:25:52;0.00;0.00;0.62;0.00;0.00;0.62;4.00;2.00;;;19.70;26.40;;;;;;2275385;61;20358;-63
2023/11/25 10:28:37;0.00;0.00;0.62;0.00;0.00;0.62;3.20;1.93;;;19.70;26.40;;;;;;2272048;61;20379;-59
2023/11/25 10:31:22;0.00;0.00;0.62;0.00;0.00;0.62;2.53;2.00;;;19.70;26.40;;;;;;2275453;61;20390;-56
2023/11/25 10:34:10;0.00;0.00;0.62;0.00;0.00;0.62;3.10;2.20;;;19.60;26.30;;;;;;2272348;61;20401;-57
2023/11/25 10:36:55;0.00;0.00;0.62;0.00;0.00;0.62;2.90;2.00;;;19.60;26.30;;;;;;2275220;61;20398;-59
2023/11/25 10:39:40;0.00;0.00;0.62;0.00;0.00;0.62;5.03;2.80;;;19.70;26.40;;;;;;2272528;61;20930;-58
2023/11/25 10:42:27;0.00;0.00;0.62;0.00;0.00;0.62;5.63;2.53;;;19.70;26.40;;;;;;2271570;61;20358;-58
2023/11/25 10:45:16;0.00;0.00;0.62;0.00;0.00;0.62;4.07;2.60;;;19.60;26.30;;;;;;2275390;61;20582;-53
2023/11/25 10:48:02;0.00;0.00;0.62;0.00;0.00;0.62;3.33;2.57;;;19.70;26.40;;;;;;2271319;61;20412;-60
2023/11/25 10:50:47;0.00;0.00;0.62;0.00;0.00;0.62;3.13;2.10;;;19.70;26.40;;;;;;2273519;60;20397;-58
2023/11/25 10:53:32;0.00;0.00;0.62;0.00;0.00;0.62;3.50;2.37;;;19.70;26.40;;;;;;2275529;61;20433;-54